Time;durP1;ratioP1;P1;durP2;ratioP2;P2;SDS_P1;SDS_P2;PMS_P1;PMS_P2;Temp;Humidity;BMP_temperature;BMP_pressure;BME280_temperature;BME280_humidity;BME280_pressure;Samples;Min_cycle;Max_cycle;Signal;HPM_P1;HPM_P2
2022/10/01 00:00:16;;;;;;;;;;;;;;;7.78;100.00;100006.41;5203782;28;20380;-73
2022/10/01 00:02:46;;;;;;;;;;;;;;;7.72;100.00;100006.59;5212859;28;20289;-74
2022/10/01 00:05:16;;;;;;;;;;;;;;;7.85;100.00;100010.50;5211346;28;20065;-74
2022/10/01 00:07:47;;;;;;;;;;;;;;;7.88;100.00;100007.78;5211602;28;19917;-73
2022/10/01 00:10:17;;;;;;;;;;;;;;;7.84;100.00;99994.97;5213723;28;20378;-74
2022/10/01 00:12:47;;;;;;;;;;;;;;;7.83;100.00;99991.50;5213927;28;19955;-74
2022/10/01 00:15:19;;;;;;;;;;;;;;;7.77;100.00;99996.91;5214031;28;19920;-73
2022/10/01 00:17:49;;;;;;;;;;;;;;;7.84;100.00;99985.41;5213057;28;19920;-73
2022/10/01 00:20:20;;;;;;;;;;;;;;;7.88;100.00;99984.38;5210701;28;19916;-74
2022/10/01 00:22:51;;;;;;;;;;;;;;;7.79;100.00;99974.31;5211846;28;19959;-74
2022/10/01 00:25:24;;;;;;;;;;;;;;;7.72;100.00;99974.56;5214249;28;20355;-73
2022/10/01 00:27:54;;;;;;;;;;;;;;;7.73;100.00;99971.06;5209202;28;20405;-74
2022/10/01 00:30:24;;;;;;;;;;;;;;;7.70;100.00;99966.81;5204306;28;19917;-74
2022/10/01 00:32:54;;;;;;;;;;;;;;;7.79;100.00;99969.09;5210661;28;20333;-73
2022/10/01 00:35:25;;;;;;;;;;;;;;;7.72;100.00;99962.38;5195680;28;19917;-74
2022/10/01 00:37:55;;;;;;;;;;;;;;;7.76;100.00;99960.56;5212552;28;19919;-73
2022/10/01 00:40:25;;;;;;;;;;;;;;;7.80;100.00;99964.72;5213519;28;19917;-73
2022/10/01 00:42:55;;;;;;;;;;;;;;;7.82;100.00;99963.78;5209594;28;19920;-73
2022/10/01 00:45:26;;;;;;;;;;;;;;;7.93;100.00;99950.41;5210111;28;20343;-74
2022/10/01 00:47:58;;;;;;;;;;;;;;;7.86;100.00;99954.16;5208559;28;19932;-74
2022/10/01 00:50:31;;;;;;;;;;;;;;;7.83;100.00;99951.63;5207119;28;19917;-74
2022/10/01 00:53:03;;;;;;;;;;;;;;;7.90;100.00;99950.53;5188001;28;19913;-74
2022/10/01 00:55:36;;;;;;;;;;;;;;;7.84;100.00;99943.78;5212912;28;19913;-73
2022/10/01 00:58:07;;;;;;;;;;;;;;;7.98;100.00;99936.34;5204429;28;19967;-72
2022/10/01 01:00:40;;;;;;;;;;;;;;;8.01;100.00;99936.22;5205018;28;19998;-73
2022/10/01 01:03:11;;;;;;;;;;;;;;;7.98;100.00;99941.56;5213325;28;19958;-74
2022/10/01 01:05:41;;;;;;;;;;;;;;;8.00;100.00;99928.47;5209058;28;19917;-74
2022/10/01 01:08:11;;;;;;;;;;;;;;;7.98;100.00;99931.16;5211340;28;19970;-73
2022/10/01 01:10:53;;;;;;;;;;;;;;;8.02;100.00;99926.69;5212670;28;19920;-73
2022/10/01 01:13:29;;;;;;;;;;;;;;;8.05;100.00;99927.41;5207302;28;20305;-74
2022/10/01 01:16:06;;;;;;;;;;;;;;;8.07;100.00;99922.16;5188349;28;19919;-74
2022/10/01 01:18:58;;;;;;;;;;;;;;;8.15;100.00;99917.50;5207932;28;19913;-74
2022/10/01 01:21:31;;;;;;;;;;;;;;;8.19;100.00;99909.59;5199582;28;19917;-74
2022/10/01 01:24:20;;;;;;;;;;;;;;;8.12;100.00;99909.81;5208940;28;20177;-73
2022/10/01 01:27:15;;;;;;;;;;;;;;;8.13;100.00;99907.19;5192430;28;19917;-74
2022/10/01 01:29:51;;;;;;;;;;;;;;;8.13;100.00;99895.91;5206102;28;19913;-73
2022/10/01 01:32:25;;;;;;;;;;;;;;;8.12;100.00;99889.88;5204672;28;19924;-74
2022/10/01 01:34:58;;;;;;;;;;;;;;;8.21;100.00;99886.94;5214330;28;19912;-72
2022/10/01 01:37:31;;;;;;;;;;;;;;;8.21;100.00;99886.13;5215941;28;19920;-74
2022/10/01 01:40:04;;;;;;;;;;;;;;;8.25;100.00;99883.31;5208115;28;19924;-74
2022/10/01 01:42:36;;;;;;;;;;;;;;;8.26;100.00;99878.97;5216299;28;19959;-73
2022/10/01 01:45:09;;;;;;;;;;;;;;;8.20;100.00;99868.81;5212813;28;19940;-73
2022/10/01 01:50:13;;;;;;;;;;;;;;;8.19;100.00;99864.50;5235738;28;20394;-78
2022/10/01 01:52:43;;;;;;;;;;;;;;;8.17;100.00;99859.31;5239075;28;19917;-79
2022/10/01 01:55:13;;;;;;;;;;;;;;;8.19;100.00;99854.94;5238390;28;20427;-79
2022/10/01 01:57:44;;;;;;;;;;;;;;;8.12;100.00;99855.19;5246239;28;19919;-79
2022/10/01 02:00:14;;;;;;;;;;;;;;;8.10;100.00;99852.66;5247414;28;19945;-78
2022/10/01 02:02:50;;;;;;;;;;;;;;;8.12;100.00;99855.19;5219386;28;19919;-79
2022/10/01 02:05:24;;;;;;;;;;;;;;;8.19;100.00;99854.09;5239249;28;19913;-79
2022/10/01 02:07:57;;;;;;;;;;;;;;;8.22;100.00;99852.19;5239164;28;19989;-78
2022/10/01 02:10:30;;;;;;;;;;;;;;;8.30;100.00;99847.56;5238601;28;20062;-79
2022/10/01 02:13:21;;;;;;;;;;;;;;;8.40;100.00;99829.84;5254791;28;19912;-79
2022/10/01 02:16:17;;;;;;;;;;;;;;;8.62;100.00;99836.78;5236998;28;19917;-78
2022/10/01 02:18:57;;;;;;;;;;;;;;;8.68;100.00;99835.66;5236589;28;19912;-79
2022/10/01 02:21:33;;;;;;;;;;;;;;;8.67;100.00;99824.41;5236833;28;19955;-79
2022/10/01 02:24:18;;;;;;;;;;;;;;;8.69;100.00;99827.78;5221165;28;19985;-79
2022/10/01 02:26:49;;;;;;;;;;;;;;;8.78;100.00;99816.16;5243569;28;19912;-79
2022/10/01 02:29:21;;;;;;;;;;;;;;;8.88;100.00;99815.72;5251659;28;19956;-78
2022/10/01 02:31:54;;;;;;;;;;;;;;;8.86;100.00;99820.13;5237337;28;19916;-79
2022/10/01 02:34:27;;;;;;;;;;;;;;;8.99;100.00;99818.75;5237688;28;20073;-79
2022/10/01 02:36:59;;;;;;;;;;;;;;;9.01;100.00;99811.69;5243697;28;19924;-79
2022/10/01 02:39:31;;;;;;;;;;;;;;;9.03;100.00;99815.09;5235988;28;19952;-78
2022/10/01 02:42:02;;;;;;;;;;;;;;;9.04;100.00;99808.97;5237505;28;19920;-79
2022/10/01 02:44:39;;;;;;;;;;;;;;;8.99;100.00;99813.53;5235144;28;19913;-79
2022/10/01 02:47:20;;;;;;;;;;;;;;;8.99;100.00;99800.50;5238208;28;19916;-79
2022/10/01 02:49:51;;;;;;;;;;;;;;;8.97;100.00;99802.31;5236747;28;19912;-78
2022/10/01 02:52:27;;;;;;;;;;;;;;;8.94;100.00;99798.97;5236505;28;20473;-79
2022/10/01 02:55:01;;;;;;;;;;;;;;;8.90;100.00;99795.66;5236434;28;19916;-79
2022/10/01 02:57:31;;;;;;;;;;;;;;;8.87;100.00;99800.16;5251104;28;19916;-79
2022/10/01 03:00:05;;;;;;;;;;;;;;;8.92;100.00;99786.00;5247309;28;20373;-79
2022/10/01 03:02:35;;;;;;;;;;;;;;;9.02;100.00;99792.53;5234729;28;19912;-79
2022/10/01 03:05:06;;;;;;;;;;;;;;;9.11;100.00;99775.69;5238847;28;20389;-79
2022/10/01 03:07:36;;;;;;;;;;;;;;;9.18;100.00;99776.19;5234513;28;19947;-79
2022/10/01 03:10:07;;;;;;;;;;;;;;;9.35;100.00;99778.09;5237595;28;19977;-79
2022/10/01 03:12:41;;;;;;;;;;;;;;;9.46;100.00;99773.25;5233857;28;19913;-76
2022/10/01 03:15:12;;;;;;;;;;;;;;;9.52;100.00;99770.38;5233843;28;19958;-76
2022/10/01 03:17:42;;;;;;;;;;;;;;;9.62;100.00;99758.63;5232235;28;19912;-76
2022/10/01 03:20:13;;;;;;;;;;;;;;;9.71;100.00;99751.22;5216243;28;19912;-77
2022/10/01 03:22:43;;;;;;;;;;;;;;;9.78;100.00;99751.78;5232408;28;19919;-76
2022/10/01 03:25:14;;;;;;;;;;;;;;;9.84;100.00;99741.06;5233667;28;19913;-76
2022/10/01 03:27:45;;;;;;;;;;;;;;;9.87;100.00;99736.56;5247316;28;20300;-76
2022/10/01 03:30:15;;;;;;;;;;;;;;;9.94;100.00;99730.13;5241211;28;19919;-76
2022/10/01 03:32:45;;;;;;;;;;;;;;;9.93;100.00;99719.75;5214317;28;20144;-76
2022/10/01 03:35:16;;;;;;;;;;;;;;;10.06;100.00;99710.47;5243481;28;19912;-77
2022/10/01 03:37:46;;;;;;;;;;;;;;;10.15;100.00;99712.66;5244338;28;19946;-76
2022/10/01 03:40:16;;;;;;;;;;;;;;;10.08;100.00;99713.84;5233179;28;19935;-76
2022/10/01 03:42:46;;;;;;;;;;;;;;;10.15;100.00;99704.84;5232235;28;19913;-76
2022/10/01 03:45:17;;;;;;;;;;;;;;;10.15;100.00;99699.63;5233247;28;19912;-76
2022/10/01 03:47:50;;;;;;;;;;;;;;;10.20;100.00;99697.63;5231369;28;19917;-76
2022/10/01 03:50:21;;;;;;;;;;;;;;;10.24;100.00;99700.00;5232321;28;19951;-76
2022/10/01 03:52:51;;;;;;;;;;;;;;;10.28;100.00;99691.09;5240240;28;19971;-76
2022/10/01 03:55:21;;;;;;;;;;;;;;;10.36;100.00;99693.34;5247531;28;20006;-76
2022/10/01 03:57:51;;;;;;;;;;;;;;;10.35;100.00;99692.47;5250142;28;19962;-77
2022/10/01 04:00:21;;;;;;;;;;;;;;;10.43;100.00;99690.38;5241056;28;20348;-76
2022/10/01 04:02:51;;;;;;;;;;;;;;;10.41;100.00;99691.34;5232463;28;19916;-77
2022/10/01 04:05:24;;;;;;;;;;;;;;;10.42;100.00;99683.44;5232321;28;20083;-76
2022/10/01 04:07:54;;;;;;;;;;;;;;;10.40;100.00;99687.03;5214167;28;20023;-76
2022/10/01 04:10:24;;;;;;;;;;;;;;;10.48;100.00;99684.91;5235935;28;20011;-77
2022/10/01 04:12:55;;;;;;;;;;;;;;;10.46;100.00;99682.38;5232569;28;20352;-76
2022/10/01 04:15:25;;;;;;;;;;;;;;;10.40;100.00;99681.81;5231596;28;20377;-76
2022/10/01 04:17:55;;;;;;;;;;;;;;;10.46;100.00;99686.75;5231955;28;19950;-77
2022/10/01 04:20:25;;;;;;;;;;;;;;;10.50;100.00;99677.84;5231478;28;20294;-77
2022/10/01 04:22:56;;;;;;;;;;;;;;;10.59;100.00;99674.75;5241254;28;19923;-76
2022/10/01 04:25:26;;;;;;;;;;;;;;;10.71;100.00;99668.94;5248597;28;20318;-76
2022/10/01 04:28:00;;;;;;;;;;;;;;;10.64;100.00;99670.16;5250403;28;20345;-76
2022/10/01 04:30:35;;;;;;;;;;;;;;;10.76;100.00;99670.41;5221394;28;19916;-76
2022/10/01 04:33:06;;;;;;;;;;;;;;;10.80;99.53;99665.84;5233275;28;19912;-77
2022/10/01 04:35:36;;;;;;;;;;;;;;;10.81;99.00;99660.53;5211309;28;19919;-76
2022/10/01 04:38:09;;;;;;;;;;;;;;;10.85;98.58;99664.69;5232770;28;19916;-74
2022/10/01 04:40:40;;;;;;;;;;;;;;;10.80;100.00;99666.69;5230115;28;20274;-76
2022/10/01 04:43:12;;;;;;;;;;;;;;;10.77;100.00;99656.41;5233374;28;19912;-76
2022/10/01 04:45:42;;;;;;;;;;;;;;;10.83;99.38;99652.63;5229729;28;19917;-77
2022/10/01 04:48:12;;;;;;;;;;;;;;;10.87;100.00;99659.41;5231801;28;20378;-77
2022/10/01 04:50:43;;;;;;;;;;;;;;;10.81;100.00;99649.22;5229808;28;19913;-76
2022/10/01 04:53:13;;;;;;;;;;;;;;;10.99;98.69;99650.94;5243964;28;19912;-76
2022/10/01 04:55:43;;;;;;;;;;;;;;;10.98;98.62;99646.59;5246561;28;19912;-76
2022/10/01 04:58:14;;;;;;;;;;;;;;;10.92;99.04;99646.91;5251037;28;19912;-77
2022/10/01 05:00:44;;;;;;;;;;;;;;;10.95;99.15;99641.53;5236593;28;19920;-76
2022/10/01 05:03:15;;;;;;;;;;;;;;;11.06;97.69;99648.75;5232272;28;19912;-76
2022/10/01 05:05:46;;;;;;;;;;;;;;;11.04;98.54;99637.53;5211864;28;19955;-76
2022/10/01 05:08:16;;;;;;;;;;;;;;;11.05;98.63;99628.75;5231553;28;20365;-77
2022/10/01 05:10:46;;;;;;;;;;;;;;;11.02;99.32;99632.47;5230309;28;19952;-76
2022/10/01 05:13:16;;;;;;;;;;;;;;;10.95;100.00;99633.69;5214098;28;19912;-76
2022/10/01 05:15:47;;;;;;;;;;;;;;;10.94;99.84;99630.25;5230560;28;19920;-76
2022/10/01 05:18:17;;;;;;;;;;;;;;;11.06;98.75;99626.97;5231238;28;19958;-76
2022/10/01 05:20:48;;;;;;;;;;;;;;;11.14;98.62;99623.03;5230950;28;20516;-76
2022/10/01 05:23:18;;;;;;;;;;;;;;;11.24;96.99;99608.53;5243256;28;19912;-76
2022/10/01 05:25:48;;;;;;;;;;;;;;;11.24;98.09;99618.19;5245780;28;20014;-76
2022/10/01 05:28:18;;;;;;;;;;;;;;;11.24;97.76;99605.09;5251218;28;20075;-76
2022/10/01 05:30:49;;;;;;;;;;;;;;;11.41;96.22;99595.41;5235667;28;19912;-76
2022/10/01 05:33:20;;;;;;;;;;;;;;;11.58;94.58;99590.13;5231209;28;19934;-76
2022/10/01 05:35:50;;;;;;;;;;;;;;;11.68;95.21;99586.06;5230579;28;20164;-76
2022/10/01 05:38:21;;;;;;;;;;;;;;;11.65;95.80;99578.38;5230601;28;19987;-77
2022/10/01 05:40:51;;;;;;;;;;;;;;;11.71;95.72;99578.06;5230998;28;19924;-76
2022/10/01 05:43:21;;;;;;;;;;;;;;;11.67;96.28;99571.31;5230960;28;19916;-77
2022/10/01 05:45:52;;;;;;;;;;;;;;;11.57;99.17;99564.03;5230166;28;19916;-77
2022/10/01 05:48:22;;;;;;;;;;;;;;;11.46;99.92;99566.38;5230125;28;19975;-77
2022/10/01 05:50:53;;;;;;;;;;;;;;;11.47;100.00;99562.84;5231133;28;20389;-77
2022/10/01 05:53:23;;;;;;;;;;;;;;;11.36;100.00;99559.94;5248992;28;19920;-76
2022/10/01 05:55:54;;;;;;;;;;;;;;;11.31;100.00;99549.72;5236128;28;19942;-77
2022/10/01 05:58:25;;;;;;;;;;;;;;;11.20;100.00;99548.63;5232970;28;19916;-77
2022/10/01 06:00:55;;;;;;;;;;;;;;;11.15;100.00;99548.91;5216734;28;20321;-76
2022/10/01 06:03:27;;;;;;;;;;;;;;;11.25;100.00;99537.00;5230138;28;20305;-77
2022/10/01 06:05:57;;;;;;;;;;;;;;;11.11;100.00;99544.75;5231260;28;19924;-76
2022/10/01 06:08:28;;;;;;;;;;;;;;;11.03;100.00;99530.41;5229068;28;19917;-77
2022/10/01 06:10:59;;;;;;;;;;;;;;;10.90;100.00;99534.63;5231445;28;19916;-77
2022/10/01 06:13:30;;;;;;;;;;;;;;;10.90;100.00;99528.53;5229587;28;19912;-77
2022/10/01 06:16:00;;;;;;;;;;;;;;;10.87;100.00;99519.09;5231831;28;19916;-77
2022/10/01 06:18:31;;;;;;;;;;;;;;;10.98;100.00;99521.97;5230284;28;19919;-77
2022/10/01 06:21:01;;;;;;;;;;;;;;;10.77;100.00;99509.19;5235185;28;19943;-78
2022/10/01 06:23:32;;;;;;;;;;;;;;;10.79;100.00;99507.34;5246396;28;20023;-78
2022/10/01 06:26:04;;;;;;;;;;;;;;;10.75;100.00;99495.38;5237383;28;19912;-77
2022/10/01 06:28:34;;;;;;;;;;;;;;;10.72;100.00;99500.78;5237544;28;19919;-78
2022/10/01 06:31:05;;;;;;;;;;;;;;;10.69;100.00;99499.16;5235949;28;20268;-76
2022/10/01 06:33:35;;;;;;;;;;;;;;;10.66;100.00;99498.50;5231885;28;19947;-78
2022/10/01 06:36:05;;;;;;;;;;;;;;;10.69;100.00;99498.34;5235686;28;19912;-78
2022/10/01 06:38:35;;;;;;;;;;;;;;;10.65;100.00;99508.09;5231772;28;20019;-78
2022/10/01 06:41:06;;;;;;;;;;;;;;;10.75;100.00;99506.69;5218355;28;19913;-78
2022/10/01 06:43:36;;;;;;;;;;;;;;;10.77;100.00;99503.97;5231659;28;19909;-78
2022/10/01 06:46:06;;;;;;;;;;;;;;;10.72;100.00;99498.16;5235710;28;20003;-78
2022/10/01 06:48:36;;;;;;;;;;;;;;;10.66;100.00;99499.31;5231141;28;19928;-77
2022/10/01 06:51:07;;;;;;;;;;;;;;;10.67;100.00;99502.78;5235621;28;19919;-77
2022/10/01 06:53:37;;;;;;;;;;;;;;;10.67;100.00;99501.00;5231501;28;19916;-78
2022/10/01 06:56:08;;;;;;;;;;;;;;;10.73;100.00;99499.84;5244366;28;19912;-79
2022/10/01 06:58:38;;;;;;;;;;;;;;;10.63;100.00;99488.19;5255903;28;19916;-77
2022/10/01 07:01:08;;;;;;;;;;;;;;;10.78;100.00;99493.44;5236052;28;19913;-78
2022/10/01 07:03:38;;;;;;;;;;;;;;;10.68;100.00;99497.47;5232078;28;20377;-78
2022/10/01 07:06:10;;;;;;;;;;;;;;;10.64;100.00;99484.66;5235653;28;20289;-78
2022/10/01 07:08:40;;;;;;;;;;;;;;;10.60;100.00;99483.13;5231506;28;19917;-78
2022/10/01 07:11:10;;;;;;;;;;;;;;;10.58;100.00;99480.63;5235108;28;19926;-76
2022/10/01 07:13:40;;;;;;;;;;;;;;;10.56;100.00;99477.25;5240434;28;19927;-78
2022/10/01 07:16:11;;;;;;;;;;;;;;;10.55;100.00;99472.91;5235511;28;19927;-79
2022/10/01 07:18:41;;;;;;;;;;;;;;;10.63;100.00;99468.13;5238914;28;19943;-78
2022/10/01 07:21:11;;;;;;;;;;;;;;;10.60;100.00;99481.38;5237004;28;19924;-78
2022/10/01 07:23:42;;;;;;;;;;;;;;;10.66;100.00;99473.19;5245277;28;19916;-78
2022/10/01 07:26:13;;;;;;;;;;;;;;;10.61;100.00;99461.28;5223959;28;19913;-78
2022/10/01 07:28:43;;;;;;;;;;;;;;;10.64;100.00;99461.13;5236741;28;19924;-78
2022/10/01 07:31:14;;;;;;;;;;;;;;;10.55;100.00;99459.03;5239961;28;19912;-78
2022/10/01 07:33:44;;;;;;;;;;;;;;;10.53;100.00;99456.47;5238579;28;20438;-78
2022/10/01 07:36:15;;;;;;;;;;;;;;;10.61;100.00;99456.94;5233683;28;19912;-78
2022/10/01 07:38:47;;;;;;;;;;;;;;;10.58;100.00;99453.63;5235921;28;19912;-78
2022/10/01 07:41:42;;;;;;;;;;;;;;;10.70;100.00;99453.81;5237809;28;19962;-78
2022/10/01 07:44:13;;;;;;;;;;;;;;;10.66;100.00;99457.53;5224372;28;19970;-77
2022/10/01 07:46:43;;;;;;;;;;;;;;;10.64;100.00;99455.91;5238490;28;19913;-79
2022/10/01 07:49:14;;;;;;;;;;;;;;;10.65;100.00;99460.22;5254339;22;20313;-72
2022/10/01 07:51:44;;;;;;;;;;;;;;;10.63;100.00;99457.69;5208787;28;19963;-73
2022/10/01 07:54:15;;;;;;;;;;;;;;;10.70;100.00;99458.22;5233446;28;19919;-73
2022/10/01 07:56:45;;;;;;;;;;;;;;;10.72;100.00;99453.75;5212886;28;19960;-73
2022/10/01 07:59:15;;;;;;;;;;;;;;;10.61;100.00;99453.47;5233678;28;19963;-73
2022/10/01 08:01:50;;;;;;;;;;;;;;;10.68;100.00;99447.00;5230855;28;20294;-73
2022/10/01 08:07:11;;;;;;;;;;;;;;;10.65;100.00;99447.16;5225821;28;19941;-73
2022/10/01 08:09:42;;;;;;;;;;;;;;;10.70;100.00;99443.34;5230447;28;20460;-73
2022/10/01 08:12:12;;;;;;;;;;;;;;;10.67;100.00;99435.69;5233617;28;19912;-73
2022/10/01 08:14:42;;;;;;;;;;;;;;;10.70;100.00;99439.91;5231136;28;20323;-73
2022/10/01 08:17:14;;;;;;;;;;;;;;;10.75;100.00;99437.88;5237984;28;19970;-73
2022/10/01 08:19:44;;;;;;;;;;;;;;;10.65;100.00;99431.50;5213555;28;20023;-74
2022/10/01 08:22:14;;;;;;;;;;;;;;;10.71;100.00;99433.75;5239305;28;20361;-72
2022/10/01 08:24:44;;;;;;;;;;;;;;;10.68;100.00;99428.72;5253939;28;19912;-73
2022/10/01 08:27:15;;;;;;;;;;;;;;;10.68;100.00;99423.47;5249896;28;19920;-73
2022/10/01 08:29:45;;;;;;;;;;;;;;;10.63;100.00;99415.88;5245312;28;20418;-73
2022/10/01 08:32:15;;;;;;;;;;;;;;;10.72;100.00;99414.53;5232619;28;20427;-73
2022/10/01 08:34:46;;;;;;;;;;;;;;;10.68;100.00;99415.66;5230822;28;19917;-73
2022/10/01 08:37:17;;;;;;;;;;;;;;;10.81;100.00;99408.78;5232077;28;20374;-73
2022/10/01 08:39:47;;;;;;;;;;;;;;;10.78;100.00;99411.59;5231088;28;19919;-73
2022/10/01 08:42:22;;;;;;;;;;;;;;;10.72;100.00;99409.31;5231533;28;19964;-73
2022/10/01 08:44:52;;;;;;;;;;;;;;;10.77;100.00;99407.28;5228288;28;19916;-73
2022/10/01 08:47:42;;;;;;;;;;;;;;;10.80;100.00;99397.53;5232055;28;19977;-73
2022/10/01 08:50:18;;;;;;;;;;;;;;;10.84;100.00;99411.28;5228782;28;19912;-72
2022/10/01 08:52:54;;;;;;;;;;;;;;;10.83;100.00;99406.97;5246519;28;19965;-73
2022/10/01 08:55:26;;;;;;;;;;;;;;;10.81;100.00;99404.44;5248605;28;19920;-73
2022/10/01 08:58:00;;;;;;;;;;;;;;;11.02;100.00;99403.22;5249651;28;19912;-73
2022/10/01 09:00:32;;;;;;;;;;;;;;;11.05;100.00;99408.28;5239440;28;19912;-73
2022/10/01 09:03:04;;;;;;;;;;;;;;;11.19;100.00;99397.91;5233260;28;19912;-73
2022/10/01 09:05:53;;;;;;;;;;;;;;;11.19;100.00;99396.13;5229757;28;20362;-73
2022/10/01 09:08:23;;;;;;;;;;;;;;;11.29;100.00;99397.28;5230952;28;19955;-73
2022/10/01 09:11:05;;;;;;;;;;;;;;;11.28;100.00;99390.38;5231718;28;19951;-73
2022/10/01 09:13:39;;;;;;;;;;;;;;;11.30;100.00;99388.50;5233127;28;19913;-73
2022/10/01 09:16:15;;;;;;;;;;;;;;;11.37;100.00;99389.84;5227812;28;19942;-74
2022/10/01 09:18:51;;;;;;;;;;;;;;;11.48;100.00;99389.22;5230946;28;19921;-74
2022/10/01 09:21:24;;;;;;;;;;;;;;;11.56;100.00;99393.13;5226754;28;20308;-74
2022/10/01 09:24:11;;;;;;;;;;;;;;;11.52;100.00;99391.59;5234043;28;19912;-73
2022/10/01 09:26:47;;;;;;;;;;;;;;;11.73;100.00;99392.97;5245612;28;19916;-74
2022/10/01 09:29:27;;;;;;;;;;;;;;;11.55;100.00;99393.16;5248657;28;19920;-73
2022/10/01 09:31:58;;;;;;;;;;;;;;;11.50;100.00;99389.97;5232081;28;20349;-74
2022/10/01 09:34:34;;;;;;;;;;;;;;;11.62;100.00;99381.47;5230006;28;20011;-74
2022/10/01 09:37:27;;;;;;;;;;;;;;;11.66;100.00;99390.81;5231363;28;19947;-74
2022/10/01 09:40:00;;;;;;;;;;;;;;;11.78;100.00;99396.16;5232177;28;19920;-74
2022/10/01 09:42:31;;;;;;;;;;;;;;;11.88;100.00;99389.44;5230522;28;19923;-74
2022/10/01 09:45:01;;;;;;;;;;;;;;;11.92;100.00;99390.94;5232117;28;20638;-74
2022/10/01 09:47:32;;;;;;;;;;;;;;;12.06;100.00;99384.88;5207840;28;19928;-74
2022/10/01 09:50:04;;;;;;;;;;;;;;;12.02;100.00;99380.75;5232738;28;19939;-74
2022/10/01 09:52:37;;;;;;;;;;;;;;;11.97;100.00;99385.44;5224879;28;20003;-73
2022/10/01 09:55:19;;;;;;;;;;;;;;;12.04;100.00;99398.06;5248850;28;20455;-74
2022/10/01 09:57:52;;;;;;;;;;;;;;;12.14;100.00;99386.09;5253126;28;19923;-73
2022/10/01 10:00:24;;;;;;;;;;;;;;;12.32;100.00;99381.53;5220847;28;19912;-74
2022/10/01 10:02:55;;;;;;;;;;;;;;;12.36;100.00;99383.84;5234405;28;19919;-74
2022/10/01 10:05:26;;;;;;;;;;;;;;;12.47;100.00;99384.03;5212639;28;19916;-73
2022/10/01 10:07:58;;;;;;;;;;;;;;;12.68;100.00;99380.06;5232670;28;19948;-74
2022/10/01 10:10:34;;;;;;;;;;;;;;;12.71;100.00;99382.50;5237054;28;19912;-74
2022/10/01 10:13:04;;;;;;;;;;;;;;;12.78;100.00;99386.41;5233306;28;19913;-73
2022/10/01 10:15:35;;;;;;;;;;;;;;;12.99;100.00;99374.56;5237873;28;20284;-73
2022/10/01 10:18:07;;;;;;;;;;;;;;;13.08;100.00;99379.25;5232124;28;19917;-74
2022/10/01 10:20:39;;;;;;;;;;;;;;;13.25;100.00;99392.09;5236364;28;19912;-74
2022/10/01 10:23:18;;;;;;;;;;;;;;;13.25;100.00;99395.56;5241361;28;19913;-73
2022/10/01 10:25:54;;;;;;;;;;;;;;;13.15;100.00;99396.25;5245120;28;19975;-74
2022/10/01 10:28:24;;;;;;;;;;;;;;;13.09;100.00;99396.66;5252129;28;20017;-75
2022/10/01 10:30:56;;;;;;;;;;;;;;;13.07;100.00;99395.91;5235262;28;19912;-75
2022/10/01 10:33:26;;;;;;;;;;;;;;;13.22;100.00;99392.31;5234934;28;20027;-74
2022/10/01 10:35:59;;;;;;;;;;;;;;;13.50;100.00;99398.28;5233807;28;20003;-74
2022/10/01 10:38:31;;;;;;;;;;;;;;;13.78;100.00;99386.78;5233919;28;19942;-75
2022/10/01 10:41:02;;;;;;;;;;;;;;;13.63;100.00;99401.78;5233523;28;19913;-74
2022/10/01 10:43:35;;;;;;;;;;;;;;;13.51;100.00;99396.47;5235634;28;19912;-75
2022/10/01 10:46:08;;;;;;;;;;;;;;;13.66;100.00;99403.34;5232442;28;19982;-74
2022/10/01 10:48:44;;;;;;;;;;;;;;;13.88;100.00;99393.09;5235724;28;20306;-73
2022/10/01 10:51:14;;;;;;;;;;;;;;;13.94;100.00;99396.13;5250990;28;19935;-73
2022/10/01 10:53:45;;;;;;;;;;;;;;;13.69;100.00;99374.25;5243244;28;19913;-74
2022/10/01 10:56:21;;;;;;;;;;;;;;;13.75;100.00;99392.22;5238409;28;19918;-73
2022/10/01 10:58:52;;;;;;;;;;;;;;;14.06;100.00;99397.91;5254206;28;19920;-75
2022/10/01 11:01:27;;;;;;;;;;;;;;;14.24;100.00;99395.88;5236889;28;19912;-73
2022/10/01 11:03:59;;;;;;;;;;;;;;;14.60;100.00;99395.91;5252194;28;20007;-74
2022/10/01 11:06:29;;;;;;;;;;;;;;;14.56;100.00;99408.44;5232976;28;20190;-74
2022/10/01 11:09:06;;;;;;;;;;;;;;;14.56;100.00;99407.59;5235668;28;19951;-74
2022/10/01 11:11:36;;;;;;;;;;;;;;;14.73;100.00;99399.38;5234773;28;19995;-74
2022/10/01 11:14:22;;;;;;;;;;;;;;;14.52;100.00;99406.13;5236237;28;20007;-75
2022/10/01 11:16:52;;;;;;;;;;;;;;;14.35;100.00;99403.81;5233073;28;19919;-75
2022/10/01 11:19:41;;;;;;;;;;;;;;;14.40;100.00;99413.06;5237012;28;19912;-74
2022/10/01 11:22:20;;;;;;;;;;;;;;;14.40;100.00;99415.72;5235703;28;19927;-74
2022/10/01 11:25:09;;;;;;;;;;;;;;;14.42;100.00;99410.34;5249827;28;19996;-75
2022/10/01 11:27:42;;;;;;;;;;;;;;;14.52;100.00;99414.00;5251778;28;20377;-74
2022/10/01 11:30:15;;;;;;;;;;;;;;;14.59;100.00;99418.72;5213506;28;19917;-74
2022/10/01 11:34:11;;;;;;;0.88;0.40;;;;;;;15.36;99.91;99406.13;5283898;27;20469;-75
2022/10/01 11:36:55;;;;;;;1.00;0.45;;;;;;;15.10;100.00;99410.63;5277829;27;20037;-74
2022/10/01 11:39:29;;;;;;;0.98;0.50;;;;;;;15.05;100.00;99431.13;5226412;28;20099;-74
2022/10/01 11:42:15;;;;;;;1.63;0.50;;;;;;;14.94;100.00;99424.97;5215072;28;20044;-74
2022/10/01 11:44:49;;;;;;;1.35;0.57;;;;;;;14.98;100.00;99416.75;5215037;28;20033;-74
2022/10/01 11:47:25;;;;;;;1.73;0.63;;;;;;;15.00;100.00;99420.09;5239187;23;20045;-75
2022/10/01 11:50:07;;;;;;;1.67;0.70;;;;;;;15.03;100.00;99419.88;5215927;28;20254;-76
2022/10/01 11:52:52;;;;;;;4.30;0.80;;;;;;;14.84;100.00;99424.78;5217176;28;20032;-78
2022/10/01 11:58:50;;;;;;;2.50;1.00;;;;;;;14.91;100.00;99426.03;5233493;28;20094;-75
2022/10/01 12:01:23;;;;;;;3.72;1.10;;;;;;;14.87;100.00;99421.94;5193674;28;20033;-75
2022/10/01 12:04:02;;;;;;;2.35;1.10;;;;;;;14.77;100.00;99424.50;5236423;28;20020;-76
2022/10/01 12:06:42;;;;;;;4.20;1.30;;;;;;;14.96;100.00;99430.94;5219363;28;20032;-76
2022/10/01 12:09:22;;;;;;;4.88;1.40;;;;;;;14.96;100.00;99429.19;5238573;28;20025;-78
2022/10/01 12:12:01;;;;;;;3.53;1.20;;;;;;;15.08;100.00;99435.34;5219880;28;20288;-77
2022/10/01 12:14:39;;;;;;;3.42;1.13;;;;;;;15.12;100.00;99428.91;5222742;28;20203;-75
2022/10/01 12:17:19;;;;;;;2.42;1.02;;;;;;;15.04;100.00;99420.75;5237452;28;20385;-75
2022/10/01 12:19:53;;;;;;;3.42;1.00;;;;;;;15.05;100.00;99427.69;5212081;28;20036;-76
2022/10/01 12:22:28;;;;;;;2.55;1.00;;;;;;;14.96;100.00;99428.31;5236728;28;20501;-77
2022/10/01 12:24:59;;;;;;;4.03;1.58;;;;;;;15.09;100.00;99435.25;5233858;28;20036;-77
2022/10/01 12:27:38;;;;;;;2.22;0.95;;;;;;;15.06;100.00;99434.63;5217966;28;20529;-78
2022/10/01 12:30:14;;;;;;;1.95;0.98;;;;;;;15.14;100.00;99429.63;5234500;28;20075;-74
2022/10/01 12:33:03;;;;;;;0.70;0.55;;;;;;;15.09;100.00;99444.91;5236459;28;20073;-75
2022/10/01 12:35:49;;;;;;;4.18;0.90;;;;;;;15.12;100.00;99453.44;5235405;28;20028;-78
2022/10/01 12:38:27;;;;;;;2.78;0.88;;;;;;;15.05;100.00;99452.19;5233417;28;20486;-76
2022/10/01 12:41:22;;;;;;;1.70;0.77;;;;;;;15.04;100.00;99450.50;5236794;28;20033;-77
2022/10/01 12:43:59;;;;;;;2.22;0.85;;;;;;;15.06;100.00;99451.25;5229617;28;20462;-79
2022/10/01 12:46:36;;;;;;;1.95;0.73;;;;;;;15.12;100.00;99449.97;5204127;28;20501;-76
2022/10/01 12:49:30;;;;;;;1.60;0.68;;;;;;;15.14;100.00;99451.53;5223037;28;20058;-78
2022/10/01 12:52:14;;;;;;;2.90;0.80;;;;;;;14.91;100.00;99456.75;5203149;28;20025;-78
2022/10/01 12:55:12;;;;;;;1.80;0.90;;;;;;;14.82;100.00;99458.25;5220159;28;20078;-76
2022/10/01 12:58:02;;;;;;;1.48;0.90;;;;;;;14.78;100.00;99457.75;5199496;28;20032;-77
2022/10/01 13:00:50;;;;;;;1.95;0.80;;;;;;;14.86;100.00;99459.72;5221707;28;20111;-76
2022/10/01 13:03:36;;;;;;;2.10;0.93;;;;;;;14.94;100.00;99453.91;5220270;28;20017;-77
2022/10/01 13:06:19;;;;;;;1.25;0.90;;;;;;;14.92;100.00;99461.94;5222564;28;20450;-77
2022/10/01 13:09:01;;;;;;;2.15;0.80;;;;;;;15.01;100.00;99448.09;5202270;28;20094;-75
2022/10/01 13:11:40;;;;;;;2.03;0.88;;;;;;;15.11;100.00;99443.00;5219619;28;20029;-79